Terminal Aerodrome Forecast
Issued by NWS Cleveland, OH

Home | Current Version | Previous Version | Text Only | Print | Product List | Glossary Off
Versions: 1 2 3 4 5 6 7 8 9 10 11 12 13 14 15 16 17 18 19 20 21 22 23

610
FTUS41 KCLE 241126
TAFCAK
TAF
KCAK 241126Z 2412/2512 VRB03KT P6SM BKN200
     FM241400 23008KT P6SM SCT040 BKN200
     FM242100 22008KT P6SM VCTS SCT040CB OVC060
     FM250000 22005KT P6SM FEW120 BKN200=

USA.gov is the U.S. government's official web portal to all federal, state and local government web resources and services.